NY/NJ Local METAR Reports

 

KNYC - NYC/Central Park, NY, USA
Distance from Hoboken: NE 4mi, 7km
Updated: 03/25/2019 11:51pm
Overcast
Overcast
 Wind from varies
Wind: varies 7 mph , 11 km/h
Temperature: 45°F , 7°C
Wind Chill: 41°F , 5°C
Dew Point: 3°F , -16°C
Humidity: 18%
Barometer: 30.12 inHg , 1020 hPa
Clouds: Overcast
Visibility: 10 miles , 16 km
Cloud details: Mostly cloudy 9000 ft
Overcast 10000 ft
2019/03/26 03:51 KNYC 260351Z AUTO VRB06KT 10SM BKN090 OVC100 07/M16 A3012 RMK AO2 SLP190 T00721156 $
KEWR - Newark, NJ, USA
Distance from Hoboken: WSW 8mi, 13km
Updated: 03/25/2019 11:51pm
Mostly cloudy
Mostly cloudy
 Wind from N
Wind: N 12 mph , 19 km/h
Temperature: 46°F , 8°C
Wind Chill: 40°F , 4°C
Dew Point: 1°F , -17°C
Humidity: 15%
Barometer: 30.10 inHg , 1019.3 hPa
Clouds: Mostly cloudy
Visibility: 10 miles , 16 km
Cloud details: Mostly cloudy 7000 ft
Mostly cloudy 9000 ft
2019/03/26 03:51 KEWR 260351Z 35010KT 10SM BKN070 BKN090 08/M17 A3010 RMK AO2 SLP190 T00781167
 
KLGA - NYC/La Guardia, NY, USA
Distance from Hoboken: ENE 8mi, 13km
Updated: 03/25/2019 11:51pm
Mostly cloudy
Mostly cloudy
 Wind from N
Wind: N 12 mph , 19 km/h
Temperature: 45°F , 7°C
Wind Chill: 39°F , 4°C
Dew Point: 9°F , -13°C
Humidity: 23%
Barometer: 30.09 inHg , 1019 hPa
Clouds: Mostly cloudy
Visibility: 10 miles , 16 km
Cloud details: Mostly cloudy 9000 ft
2019/03/26 03:51 KLGA 260351Z 35010KT 10SM BKN090 07/M13 A3009 RMK AO2 SLP189 T00671133
KTEB - Teterboro, NJ, USA
Distance from Hoboken: N 9mi, 14km
Updated: 03/25/2019 11:51pm
Overcast
Overcast
 Wind from NNE
Wind: NNE 7 mph , 11 km/h
Temperature: 43°F , 6°C
Wind Chill: 39°F , 4°C
Dew Point: 7°F , -14°C
Humidity: 22%
Barometer: 30.09 inHg , 1019 hPa
Clouds: Overcast
Visibility: 10 miles , 16 km
Cloud details: Overcast 10000 ft
2019/03/26 03:51 KTEB 260351Z 03006KT 10SM OVC100 06/M14 A3009 RMK AO2 SLP190 T00611139
 
KJFK - NYC/Jfk Arpt, NY, USA
Distance from Hoboken: ESE 16mi, 25km
Updated: 03/25/2019 11:51pm
Mostly cloudy
Mostly cloudy
 Wind from N
Wind: N 18 mph , 30 km/h
Temperature: 45°F , 7°C
Wind Chill: 37°F , 3°C
Dew Point: 12°F , -11°C
Humidity: 27%
Barometer: 30.10 inHg , 1019.3 hPa
Clouds: Mostly cloudy
Visibility: 10 miles , 16 km
Cloud details: Mostly cloudy 7000 ft
2019/03/26 03:51 KJFK 260351Z 36016KT 10SM BKN070 07/M11 A3010 RMK AO2 WSHFT 0318 SLP192 T00671111
KCDW - Caldwell, NJ, USA
Distance from Hoboken: NW 16mi, 26km
Updated: 03/25/2019 11:53pm
Mostly cloudy
Mostly cloudy
 Wind from NNE
Wind: NNE 9 mph , 15 km/h, Gust: 17 mph , 28 km/h
Temperature: 43°F , 6°C
Wind Chill: 38°F , 3°C
Dew Point: 1°F , -17°C
Humidity: 17%
Barometer: 30.11 inHg , 1019.6 hPa
Clouds: Mostly cloudy
Visibility: 10 miles , 16 km
Cloud details: Mostly cloudy 11000 ft
2019/03/26 03:53 KCDW 260353Z AUTO 02008G15KT 10SM BKN110 06/M17 A3011 RMK AO2 SLP203 T00561167
 
KMMU - Morristown Muni, NJ, USA
Distance from Hoboken: W 20mi, 33km
Updated: 03/25/2019 11:55pm
Overcast
Overcast
 Wind from calm
Wind: Calm
Temperature: 43°F , 6°C
Dew Point: 7°F , -14°C
Humidity: 22%
Barometer: 30.10 inHg , 1019.3 hPa
Clouds: Overcast
Visibility: 10 miles , 16 km
Cloud details: Overcast 9000 ft
2019/03/26 03:55 KMMU 260355Z AUTO 00000KT 10SM OVC090 06/M14 A3010 RMK AO2
KHPN - White Plains, NY, USA
Distance from Hoboken: NE 28mi, 46km
Updated: 03/25/2019 11:56pm
Partly cloudy
Partly cloudy
 Wind from N
Wind: N 12 mph , 19 km/h
Temperature: 37°F , 3°C
Wind Chill: 29°F , -2°C
Dew Point: 3°F , -16°C
Humidity: 23%
Barometer: 30.09 inHg , 1019 hPa
Clouds: Partly cloudy
Visibility: 10 miles , 16 km
Cloud details: Partly cloudy 9500 ft
2019/03/26 03:56 KHPN 260356Z 36010KT 10SM SCT095 03/M16 A3009 RMK AO2 SLP194 T00281156
 
KFRG - Farmingdale, NY, USA
Distance from Hoboken: E 32mi, 52km
Updated: 03/25/2019 11:53pm
Overcast
Overcast
 Wind from NNE
Wind: NNE 13 mph , 20 km/h
Temperature: 43°F , 6°C
Wind Chill: 36°F , 2°C
Dew Point: 10°F , -12°C
Humidity: 26%
Barometer: 30.09 inHg , 1019 hPa
Clouds: Overcast
Visibility: 10 miles , 16 km
Cloud details: Few Clouds 4900 ft
Overcast 8500 ft
2019/03/26 03:53 KFRG 260353Z 02011KT 10SM FEW049 OVC085 06/M12 A3009 RMK AO2 SLP189 T00561117
KSMQ - Somerville, NJ, USA
Distance from Hoboken: WSW 34mi, 55km
Updated: 03/25/2019 11:53pm
Overcast
Overcast
 Wind from N
Wind: N 7 mph , 11 km/h
Temperature: 43°F , 6°C
Wind Chill: 39°F , 4°C
Dew Point: 18°F , -8°C
Humidity: 36%
Barometer: 30.09 inHg , 1019 hPa
Clouds: Overcast
Visibility: 10 miles , 16 km
Cloud details: Overcast 9000 ft
2019/03/26 03:53 KSMQ 260353Z AUTO 35006KT 10SM OVC090 06/M08 A3009 RMK AO2 SLP191 T00611078
 
KBLM - Belmar/Farmdale, NJ, USA
Distance from Hoboken: S 40mi, 64km
Updated: 03/25/2019 11:56pm
Overcast
Overcast
 Wind from WSW
Wind: WSW 3 mph , 6 km/h
Temperature: 41°F , 5°C
Dew Point: 36°F , 2°C
Humidity: 81%
Barometer: 30.10 inHg , 1019.3 hPa
Clouds: Overcast
Visibility: 10 miles , 16 km
Cloud details: Few Clouds 4300 ft
Partly cloudy 5000 ft
Overcast 6000 ft
2019/03/26 03:56 KBLM 260356Z AUTO 24003KT 10SM FEW043 SCT050 OVC060 05/02 A3010 RMK AO2 SLP198 T00500017
K12N - Andover, NJ, USA
Distance from Hoboken: WNW 41mi, 67km
Updated: 03/25/2019 11:54pm

 Wind from N
Wind: N 5 mph , 7 km/h
Temperature: 36°F , 2°C
Wind Chill: 32°F , 0°C
Dew Point: 7°F , -14°C
Humidity: 30%
Barometer: 30.11 inHg , 1019.6 hPa
2019/03/26 03:54 K12N 260354Z AUTO 36004KT 02/M14 A3011 RMK AO1 SLP203 T00221144
 
KFWN - Sussex, NJ, USA
Distance from Hoboken: NW 45mi, 72km
Updated: 03/25/2019 11:53pm
Clear
Clear
 Wind from calm
Wind: Calm
Temperature: 28°F , -2°C
Dew Point: 12°F , -11°C
Humidity: 51%
Barometer: 30.12 inHg , 1020 hPa
Clouds: Clear
Visibility: 10 miles , 16 km
2019/03/26 03:53 KFWN 260353Z AUTO 00000KT 10SM CLR M02/M11 A3012 RMK AO2 SLP204 T10171106
KISP - Islip, NY, USA
Distance from Hoboken: E 49mi, 79km
Updated: 03/25/2019 11:56pm
Overcast
Overcast
 Wind from NNE
Wind: NNE 10 mph , 17 km/h
Temperature: 43°F , 6°C
Wind Chill: 37°F , 3°C
Dew Point: 12°F , -11°C
Humidity: 29%
Barometer: 30.09 inHg , 1019 hPa
Clouds: Overcast
Visibility: 10 miles , 16 km
Cloud details: Partly cloudy 4600 ft
Overcast 8500 ft
2019/03/26 03:56 KISP 260356Z 03009KT 10SM SCT046 OVC085 06/M11 A3009 RMK AO2 SLP189 LAST T00611106